Adkins, Texas
Current Conditions -  °F | °C
As of 3:58 AM on Friday 28 Nov 2014 (Local Time) from KRND Reporting Station
Haze Haze  
Wind Chill: 40°   Ceiling: Unl
Heat Index: 40°   Visibility: 4mi
Dew Point: 36°   Wind: 3mph
Humidity: 86%   Direction: 300°WNW
Pressure: 30.32"   Gusts: NA
Location:  29.39°N, 98.24°W
Report Text: KRND 280958Z AUTO 30003KT 4SM R32R/4000FT BR CLR 04/02 A3032 RMK AO2 SLP268 T00440023
Loading
Personal Weather Stations






























Interactive Weather Map New forecast layout! Learn more

10-Day Weather Forecast

Advertisements
Track Severe Weather on mobile